Time;durP1;ratioP1;P1;durP2;ratioP2;P2;SDS_P1;SDS_P2;PMS_P1;PMS_P2;Temp;Humidity;BMP_temperature;BMP_pressure;BME280_temperature;BME280_humidity;BME280_pressure;Samples;Min_cycle;Max_cycle;Signal;HPM_P1;HPM_P2
2023/03/19 00:01:56;;;;;;;10.48;5.28;;;;;;;;;;5008904;28;20038;-60
2023/03/19 00:04:25;;;;;;;10.10;5.72;;;;;;;;;;5010290;28;20033;-61
2023/03/19 00:06:51;;;;;;;10.27;3.80;;;;;;;;;;5009687;28;20037;-61
2023/03/19 00:09:17;;;;;;;10.05;3.50;;;;;;;;;;5008389;28;20526;-62
2023/03/19 00:11:44;;;;;;;6.18;3.85;;;;;;;;;;5010844;28;20048;-61
2023/03/19 00:14:10;;;;;;;6.93;3.30;;;;;;;;;;5007863;28;20392;-61
2023/03/19 00:16:37;;;;;;;8.60;3.92;;;;;;;;;;5008765;28;20042;-60
2023/03/19 00:19:03;;;;;;;10.20;3.72;;;;;;;;;;5008283;28;20042;-61
2023/03/19 00:21:31;;;;;;;10.85;5.80;;;;;;;;;;5006267;28;20061;-62
2023/03/19 00:24:00;;;;;;;8.50;4.75;;;;;;;;;;5008860;28;20064;-62
2023/03/19 00:26:33;;;;;;;8.00;4.82;;;;;;;;;;5007777;28;20724;-61
2023/03/19 00:29:00;;;;;;;8.13;5.30;;;;;;;;;;5005952;28;20034;-61
2023/03/19 00:31:27;;;;;;;3.70;3.08;;;;;;;;;;5008293;28;20041;-60
2023/03/19 00:33:57;;;;;;;5.95;2.90;;;;;;;;;;5011276;28;20033;-60
2023/03/19 00:36:24;;;;;;;8.02;3.95;;;;;;;;;;5023540;28;20046;-60
2023/03/19 00:38:52;;;;;;;7.07;3.50;;;;;;;;;;5007450;28;20474;-60
2023/03/19 00:41:19;;;;;;;7.70;3.80;;;;;;;;;;5005714;28;20080;-60
2023/03/19 00:43:46;;;;;;;7.47;4.22;;;;;;;;;;5008650;28;20045;-61
2023/03/19 00:46:13;;;;;;;8.95;4.53;;;;;;;;;;5006160;28;20053;-62
2023/03/19 00:48:42;;;;;;;11.68;3.95;;;;;;;;;;5006020;28;20050;-61
2023/03/19 00:51:10;;;;;;;6.30;3.95;;;;;;;;;;5009301;28;20372;-60
2023/03/19 00:53:42;;;;;;;9.25;3.33;;;;;;;;;;5007331;28;20412;-61
2023/03/19 00:56:10;;;;;;;6.40;2.63;;;;;;;;;;5006719;28;20045;-60
2023/03/19 00:58:37;;;;;;;5.45;2.70;;;;;;;;;;5007470;28;20037;-61
2023/03/19 01:01:04;;;;;;;7.80;2.83;;;;;;;;;;5009012;28;20054;-61
2023/03/19 01:03:31;;;;;;;7.88;2.72;;;;;;;;;;5009998;28;20030;-60
2023/03/19 01:05:57;;;;;;;5.28;2.50;;;;;;;;;;5011814;28;20061;-60
2023/03/19 01:08:24;;;;;;;6.03;2.33;;;;;;;;;;5006247;28;20038;-61
2023/03/19 01:10:50;;;;;;;7.05;2.60;;;;;;;;;;5007021;28;20522;-60
2023/03/19 01:13:16;;;;;;;5.95;3.35;;;;;;;;;;5008505;28;20038;-60
2023/03/19 01:15:43;;;;;;;5.63;2.33;;;;;;;;;;5006333;28;20531;-60
2023/03/19 01:18:10;;;;;;;5.90;2.55;;;;;;;;;;5005446;28;20053;-60
2023/03/19 01:20:38;;;;;;;7.80;3.47;;;;;;;;;;5013240;28;20037;-60
2023/03/19 01:23:06;;;;;;;11.10;3.38;;;;;;;;;;5013266;28;20044;-60
2023/03/19 01:25:33;;;;;;;9.05;4.15;;;;;;;;;;5005852;28;20030;-60
2023/03/19 01:28:04;;;;;;;7.75;3.50;;;;;;;;;;5004535;28;20519;-60
2023/03/19 01:30:30;;;;;;;7.35;3.30;;;;;;;;;;5006284;28;20042;-60
2023/03/19 01:33:19;;;;;;;5.03;3.03;;;;;;;;;;5014056;28;20049;-60
2023/03/19 01:36:11;;;;;;;6.03;3.17;;;;;;;;;;5007859;28;20053;-60
2023/03/19 01:38:50;;;;;;;5.18;3.55;;;;;;;;;;5006834;28;20041;-60
2023/03/19 01:41:17;;;;;;;6.07;3.55;;;;;;;;;;5006019;28;20042;-60
2023/03/19 01:43:43;;;;;;;8.80;4.05;;;;;;;;;;5006370;28;20038;-59
2023/03/19 01:46:37;;;;;;;4.90;3.35;;;;;;;;;;5010382;28;20037;-61
2023/03/19 01:49:25;;;;;;;7.25;4.15;;;;;;;;;;5013394;28;20061;-61
2023/03/19 01:52:04;;;;;;;8.15;3.83;;;;;;;;;;5010919;28;20041;-61
2023/03/19 01:54:40;;;;;;;10.80;4.53;;;;;;;;;;5009785;28;20033;-61
2023/03/19 01:57:25;;;;;;;6.80;3.75;;;;;;;;;;5012771;28;20443;-61
2023/03/19 02:00:24;;;;;;;9.38;4.10;;;;;;;;;;5010901;28;20053;-61
2023/03/19 02:02:58;;;;;;;6.67;3.87;;;;;;;;;;5013925;28;20072;-61
2023/03/19 02:05:48;;;;;;;9.00;4.32;;;;;;;;;;5012334;28;20037;-60
2023/03/19 02:08:16;;;;;;;7.50;4.57;;;;;;;;;;5028757;28;20077;-60
2023/03/19 02:10:46;;;;;;;8.67;4.20;;;;;;;;;;5012431;28;20030;-60
2023/03/19 02:13:12;;;;;;;7.88;4.32;;;;;;;;;;5013385;28;20053;-61
2023/03/19 02:15:40;;;;;;;8.63;4.30;;;;;;;;;;5029549;28;20044;-61
2023/03/19 02:18:07;;;;;;;8.43;4.03;;;;;;;;;;5009500;28;20037;-61
2023/03/19 02:20:40;;;;;;;10.07;4.70;;;;;;;;;;5009057;28;20049;-61
2023/03/19 02:23:21;;;;;;;7.07;4.07;;;;;;;;;;4994620;28;20045;-61
2023/03/19 02:26:07;;;;;;;12.15;4.00;;;;;;;;;;5013642;28;20045;-61
2023/03/19 02:28:36;;;;;;;9.55;4.05;;;;;;;;;;5010108;28;20033;-60
2023/03/19 02:31:02;;;;;;;6.85;3.80;;;;;;;;;;4997752;28;20053;-60
2023/03/19 02:33:29;;;;;;;6.75;3.80;;;;;;;;;;5025670;28;20064;-61
2023/03/19 02:35:57;;;;;;;7.82;4.07;;;;;;;;;;5010547;28;20050;-61
2023/03/19 02:38:26;;;;;;;6.47;3.80;;;;;;;;;;5010938;28;20057;-60
2023/03/19 02:41:00;;;;;;;8.00;3.80;;;;;;;;;;5009509;28;20060;-61
2023/03/19 02:43:26;;;;;;;8.35;3.95;;;;;;;;;;5010662;28;20045;-60
2023/03/19 02:45:53;;;;;;;6.75;3.70;;;;;;;;;;5010515;28;20507;-61
2023/03/19 02:48:19;;;;;;;6.32;3.80;;;;;;;;;;5009424;28;20069;-61
2023/03/19 02:50:45;;;;;;;6.50;3.72;;;;;;;;;;5009206;28;20076;-61
2023/03/19 02:53:12;;;;;;;9.93;4.47;;;;;;;;;;5011812;28;20041;-61
2023/03/19 02:55:38;;;;;;;6.78;3.88;;;;;;;;;;5012281;28;20038;-61
2023/03/19 02:58:04;;;;;;;8.63;4.65;;;;;;;;;;5011834;28;20045;-61
2023/03/19 03:00:30;;;;;;;6.88;4.03;;;;;;;;;;5005854;28;20044;-61
2023/03/19 03:02:57;;;;;;;7.38;3.90;;;;;;;;;;5008874;28;20069;-61
2023/03/19 03:05:24;;;;;;;9.05;4.80;;;;;;;;;;5009239;28;20034;-61
2023/03/19 03:07:50;;;;;;;8.68;4.45;;;;;;;;;;5011629;28;20049;-61
2023/03/19 03:10:16;;;;;;;8.10;4.40;;;;;;;;;;5009380;28;20132;-61
2023/03/19 03:12:43;;;;;;;9.05;4.85;;;;;;;;;;5008984;28;20033;-62
2023/03/19 03:15:10;;;;;;;10.63;4.65;;;;;;;;;;5010858;28;20037;-62
2023/03/19 03:17:42;;;;;;;7.43;4.68;;;;;;;;;;5007515;28;20050;-63
2023/03/19 03:20:10;;;;;;;7.93;4.63;;;;;;;;;;5037729;28;20042;-61
2023/03/19 03:22:37;;;;;;;6.32;4.20;;;;;;;;;;5035800;28;20033;-60
2023/03/19 03:25:03;;;;;;;8.60;4.63;;;;;;;;;;5010324;28;20038;-62
2023/03/19 03:27:30;;;;;;;7.63;4.97;;;;;;;;;;5009983;28;20041;-61
2023/03/19 03:29:56;;;;;;;6.82;4.13;;;;;;;;;;5008603;28;20041;-61
2023/03/19 03:32:22;;;;;;;7.15;4.38;;;;;;;;;;5010891;28;20025;-61
2023/03/19 03:34:49;;;;;;;8.82;4.93;;;;;;;;;;5009579;28;20049;-61
2023/03/19 03:37:16;;;;;;;10.38;4.97;;;;;;;;;;5008756;28;20044;-62
2023/03/19 03:39:42;;;;;;;12.50;5.55;;;;;;;;;;5010156;28;20393;-61
2023/03/19 03:42:08;;;;;;;8.27;5.32;;;;;;;;;;5008246;28;20048;-61
2023/03/19 03:44:35;;;;;;;9.25;5.00;;;;;;;;;;5008027;28;20093;-61
2023/03/19 03:47:02;;;;;;;11.90;6.03;;;;;;;;;;5009694;28;20038;-61
2023/03/19 03:49:28;;;;;;;8.57;4.72;;;;;;;;;;5008558;28;20059;-61
2023/03/19 03:51:56;;;;;;;11.73;5.03;;;;;;;;;;5010168;28;20026;-61
2023/03/19 03:54:22;;;;;;;10.38;5.07;;;;;;;;;;5009278;28;20032;-61
2023/03/19 03:56:49;;;;;;;10.82;5.53;;;;;;;;;;5009212;28;20038;-60
2023/03/19 03:59:15;;;;;;;10.43;5.57;;;;;;;;;;5007060;28;20052;-61
2023/03/19 04:01:42;;;;;;;10.38;5.80;;;;;;;;;;5014103;28;20053;-60
2023/03/19 04:04:08;;;;;;;9.68;5.57;;;;;;;;;;5014845;28;20045;-60
2023/03/19 04:06:34;;;;;;;12.07;6.03;;;;;;;;;;5014088;28;20065;-61
2023/03/19 04:09:12;;;;;;;9.60;5.95;;;;;;;;;;5008479;28;20086;-59
2023/03/19 04:11:40;;;;;;;8.70;5.20;;;;;;;;;;5009948;28;20045;-59
2023/03/19 04:14:07;;;;;;;10.50;5.72;;;;;;;;;;5010900;28;20037;-59
2023/03/19 04:16:34;;;;;;;11.73;6.00;;;;;;;;;;5010174;28;20033;-60
2023/03/19 04:19:01;;;;;;;13.57;6.53;;;;;;;;;;5010025;28;20026;-59
2023/03/19 04:21:28;;;;;;;10.93;5.88;;;;;;;;;;5009380;28;20041;-60
2023/03/19 04:23:55;;;;;;;12.93;6.82;;;;;;;;;;5012063;28;20038;-60
2023/03/19 04:26:21;;;;;;;17.23;6.10;;;;;;;;;;5011679;28;20420;-60
2023/03/19 04:28:47;;;;;;;11.50;6.25;;;;;;;;;;5011990;28;20411;-60
2023/03/19 04:31:14;;;;;;;16.70;6.00;;;;;;;;;;5007853;28;20056;-55
2023/03/19 04:33:43;;;;;;;12.07;5.82;;;;;;;;;;5008065;28;20037;-60
2023/03/19 04:36:09;;;;;;;13.98;6.82;;;;;;;;;;5009463;28;20041;-60
2023/03/19 04:38:37;;;;;;;13.45;6.30;;;;;;;;;;5008349;28;20042;-60
2023/03/19 04:41:03;;;;;;;10.85;6.72;;;;;;;;;;5006010;28;20038;-60
2023/03/19 04:43:32;;;;;;;13.45;6.10;;;;;;;;;;5007600;28;20411;-60
2023/03/19 04:46:00;;;;;;;11.70;6.00;;;;;;;;;;5007664;28;20041;-60
2023/03/19 04:48:27;;;;;;;14.77;5.93;;;;;;;;;;5008177;28;20046;-60
2023/03/19 04:50:55;;;;;;;12.27;6.13;;;;;;;;;;4990888;28;20045;-60
2023/03/19 04:53:22;;;;;;;16.23;6.30;;;;;;;;;;5009466;28;20041;-60
2023/03/19 04:55:50;;;;;;;11.65;5.65;;;;;;;;;;4993764;28;20388;-60
2023/03/19 04:58:18;;;;;;;10.68;5.60;;;;;;;;;;5007559;28;20063;-60
2023/03/19 05:00:50;;;;;;;13.55;5.90;;;;;;;;;;5006948;28;20044;-61
2023/03/19 05:03:21;;;;;;;9.52;5.47;;;;;;;;;;5010505;28;20045;-60
2023/03/19 05:05:48;;;;;;;11.35;5.47;;;;;;;;;;4995309;28;20380;-61
2023/03/19 05:08:14;;;;;;;10.88;5.72;;;;;;;;;;5010692;28;20046;-59
2023/03/19 05:10:40;;;;;;;16.92;6.45;;;;;;;;;;5010399;28;20033;-62
2023/03/19 05:13:07;;;;;;;12.35;5.93;;;;;;;;;;5006720;28;20038;-61
2023/03/19 05:15:42;;;;;;;11.32;5.78;;;;;;;;;;5006920;28;20037;-61
2023/03/19 05:18:09;;;;;;;12.80;6.40;;;;;;;;;;5008413;28;20041;-61
2023/03/19 05:20:38;;;;;;;13.95;6.10;;;;;;;;;;5010965;28;20052;-62
2023/03/19 05:23:09;;;;;;;10.43;5.97;;;;;;;;;;5011145;28;20040;-61
2023/03/19 05:25:43;;;;;;;14.15;5.47;;;;;;;;;;5011417;28;20045;-61
2023/03/19 05:28:13;;;;;;;9.07;4.85;;;;;;;;;;5011020;28;20038;-61
2023/03/19 05:30:41;;;;;;;12.57;5.55;;;;;;;;;;5009011;28;20050;-61
2023/03/19 05:33:16;;;;;;;13.45;4.25;;;;;;;;;;4996334;28;20029;-60
2023/03/19 05:35:44;;;;;;;11.95;5.13;;;;;;;;;;5009624;28;20041;-60
2023/03/19 05:38:18;;;;;;;11.23;4.68;;;;;;;;;;5010525;28;20640;-60
2023/03/19 05:40:52;;;;;;;11.00;4.45;;;;;;;;;;5011240;28;20403;-60
2023/03/19 05:43:24;;;;;;;9.95;4.40;;;;;;;;;;5010195;28;20412;-60
2023/03/19 05:45:51;;;;;;;10.60;4.47;;;;;;;;;;5009708;28;20045;-60
2023/03/19 05:48:22;;;;;;;9.30;4.45;;;;;;;;;;5010215;28;20029;-61
2023/03/19 05:50:48;;;;;;;7.82;4.40;;;;;;;;;;5013205;28;20053;-61
2023/03/19 05:53:20;;;;;;;14.80;4.72;;;;;;;;;;5010844;28;20431;-61
2023/03/19 05:56:24;;;;;;;10.00;4.55;;;;;;;;;;5012851;28;20042;-61
2023/03/19 05:59:07;;;;;;;11.65;4.15;;;;;;;;;;5020965;28;20049;-60
2023/03/19 06:01:37;;;;;;;15.50;4.90;;;;;;;;;;5011807;28;20053;-61
2023/03/19 06:04:04;;;;;;;6.70;3.75;;;;;;;;;;5019921;28;20411;-61
2023/03/19 06:06:30;;;;;;;7.65;3.85;;;;;;;;;;5016035;28;20518;-61
2023/03/19 06:08:56;;;;;;;16.40;5.05;;;;;;;;;;5013292;28;20054;-61
2023/03/19 06:11:39;;;;;;;8.00;3.95;;;;;;;;;;5018004;28;20040;-62
2023/03/19 06:14:40;;;;;;;12.70;3.60;;;;;;;;;;5009271;28;20045;-61
2023/03/19 06:17:30;;;;;;;4.97;3.10;;;;;;;;;;4963874;28;20068;-61
2023/03/19 06:20:01;;;;;;;4.10;2.92;;;;;;;;;;5009918;28;20061;-62
2023/03/19 06:22:27;;;;;;;5.80;2.92;;;;;;;;;;5010556;28;20046;-60
2023/03/19 06:24:53;;;;;;;5.20;3.22;;;;;;;;;;5011651;28;20049;-61
2023/03/19 06:27:20;;;;;;;3.10;2.45;;;;;;;;;;5012267;28;20049;-61
2023/03/19 06:29:47;;;;;;;5.82;3.20;;;;;;;;;;5008735;28;20041;-61
2023/03/19 06:32:22;;;;;;;6.57;3.92;;;;;;;;;;5009733;28;20045;-63
2023/03/19 06:34:50;;;;;;;4.43;2.85;;;;;;;;;;5009087;28;20526;-62
2023/03/19 06:37:17;;;;;;;4.68;2.78;;;;;;;;;;4994639;28;20064;-62
2023/03/19 06:39:43;;;;;;;7.38;2.70;;;;;;;;;;5010485;28;20030;-62
2023/03/19 06:42:10;;;;;;;5.78;2.97;;;;;;;;;;5012630;28;20054;-62
2023/03/19 06:44:36;;;;;;;5.32;3.05;;;;;;;;;;5008944;28;20033;-62
2023/03/19 06:47:02;;;;;;;6.05;3.05;;;;;;;;;;5010684;28;20042;-62
2023/03/19 06:49:29;;;;;;;6.90;2.90;;;;;;;;;;5010213;28;20049;-62
2023/03/19 06:51:55;;;;;;;3.95;2.45;;;;;;;;;;5010975;28;20048;-62
2023/03/19 06:54:47;;;;;;;6.43;3.25;;;;;;;;;;5012293;28;20669;-62
2023/03/19 06:57:13;;;;;;;8.80;4.80;;;;;;;;;;5006946;28;20048;-62
2023/03/19 06:59:39;;;;;;;6.57;3.03;;;;;;;;;;5011111;28;20268;-61
2023/03/19 07:02:06;;;;;;;6.93;2.45;;;;;;;;;;5012621;28;20033;-62
2023/03/19 07:04:32;;;;;;;4.90;2.88;;;;;;;;;;5008648;28;20029;-62
2023/03/19 07:06:58;;;;;;;6.95;3.72;;;;;;;;;;5008745;28;20399;-62
2023/03/19 07:09:24;;;;;;;4.63;2.70;;;;;;;;;;5014539;28;20512;-61
2023/03/19 07:11:51;;;;;;;4.47;2.53;;;;;;;;;;5010376;28;20060;-64
2023/03/19 07:14:17;;;;;;;4.40;2.40;;;;;;;;;;5015356;28;20034;-61
2023/03/19 07:16:44;;;;;;;6.03;2.55;;;;;;;;;;5001627;28;20065;-62
2023/03/19 07:19:10;;;;;;;4.75;2.40;;;;;;;;;;5008257;28;20129;-62
2023/03/19 07:21:36;;;;;;;4.43;2.60;;;;;;;;;;5011276;28;20516;-62
2023/03/19 07:24:03;;;;;;;5.93;2.78;;;;;;;;;;5009341;28;20037;-62
2023/03/19 07:26:29;;;;;;;4.75;2.50;;;;;;;;;;5008896;28;20038;-62
2023/03/19 07:28:55;;;;;;;7.93;3.85;;;;;;;;;;4990897;28;20030;-62
2023/03/19 07:31:22;;;;;;;5.18;2.75;;;;;;;;;;5008014;28;20054;-62
2023/03/19 07:33:48;;;;;;;5.60;2.38;;;;;;;;;;5008894;28;20040;-62
2023/03/19 07:36:14;;;;;;;4.75;2.22;;;;;;;;;;5010127;28;20037;-62
2023/03/19 07:38:40;;;;;;;6.35;2.30;;;;;;;;;;5008932;28;20038;-62
2023/03/19 07:41:07;;;;;;;3.70;2.50;;;;;;;;;;5006593;28;20049;-62
2023/03/19 07:43:33;;;;;;;5.47;2.22;;;;;;;;;;5008296;28;20396;-62
2023/03/19 07:45:59;;;;;;;5.25;2.50;;;;;;;;;;5010072;28;20033;-62
2023/03/19 07:48:26;;;;;;;6.57;3.92;;;;;;;;;;5006783;28;20045;-62
2023/03/19 07:50:53;;;;;;;6.95;3.47;;;;;;;;;;5009223;28;20050;-62
2023/03/19 07:53:19;;;;;;;5.60;3.15;;;;;;;;;;5012826;28;20053;-63
2023/03/19 07:55:47;;;;;;;5.25;2.83;;;;;;;;;;5009055;28;20037;-62
2023/03/19 07:58:13;;;;;;;4.70;3.08;;;;;;;;;;5010510;28;20049;-62
2023/03/19 08:00:39;;;;;;;7.38;3.63;;;;;;;;;;5010940;28;20129;-62
2023/03/19 08:03:06;;;;;;;6.90;3.53;;;;;;;;;;5012918;28;20034;-63
2023/03/19 08:05:32;;;;;;;4.75;3.10;;;;;;;;;;5015368;28;20037;-62
2023/03/19 08:07:58;;;;;;;3.45;3.00;;;;;;;;;;5012256;28;20049;-62
2023/03/19 08:10:24;;;;;;;5.22;2.90;;;;;;;;;;5009078;28;20034;-62
2023/03/19 08:12:51;;;;;;;6.13;3.58;;;;;;;;;;5009868;28;20491;-62
2023/03/19 08:15:17;;;;;;;4.63;2.90;;;;;;;;;;5011490;28;20381;-61
2023/03/19 08:17:43;;;;;;;4.85;2.92;;;;;;;;;;5011554;28;20514;-62
2023/03/19 08:20:12;;;;;;;5.65;3.35;;;;;;;;;;5009126;28;20038;-61
2023/03/19 08:22:39;;;;;;;9.27;4.63;;;;;;;;;;5009652;28;20038;-62
2023/03/19 08:25:06;;;;;;;7.35;3.15;;;;;;;;;;5013745;28;20029;-61
2023/03/19 08:27:34;;;;;;;5.90;2.88;;;;;;;;;;5009069;28;20507;-62
2023/03/19 08:30:02;;;;;;;3.83;2.42;;;;;;;;;;5008192;28;20030;-63
2023/03/19 08:32:29;;;;;;;4.57;2.65;;;;;;;;;;5008046;28;20045;-63
2023/03/19 08:34:55;;;;;;;5.05;2.60;;;;;;;;;;5009179;28;20106;-62
2023/03/19 08:37:21;;;;;;;6.25;3.08;;;;;;;;;;5007689;28;20061;-62
2023/03/19 08:39:51;;;;;;;5.82;3.90;;;;;;;;;;5009260;28;20041;-61
2023/03/19 08:42:18;;;;;;;9.57;3.78;;;;;;;;;;5008245;28;20488;-62
2023/03/19 08:44:44;;;;;;;6.43;3.78;;;;;;;;;;5010742;28;20038;-61
2023/03/19 08:47:11;;;;;;;6.10;3.70;;;;;;;;;;5008730;28;20507;-62
2023/03/19 08:49:37;;;;;;;5.75;3.17;;;;;;;;;;5008278;28;20058;-62
2023/03/19 08:52:04;;;;;;;5.80;3.20;;;;;;;;;;5006461;28;20034;-62
2023/03/19 08:54:30;;;;;;;5.20;3.33;;;;;;;;;;5006938;28;20034;-62
2023/03/19 08:56:58;;;;;;;4.88;2.75;;;;;;;;;;5009045;28;20595;-62
2023/03/19 08:59:24;;;;;;;4.75;3.25;;;;;;;;;;5010699;28;20057;-61
2023/03/19 09:01:51;;;;;;;6.32;3.08;;;;;;;;;;5010984;28;20046;-63
2023/03/19 09:04:19;;;;;;;5.55;2.95;;;;;;;;;;5009000;28;20411;-64
2023/03/19 09:06:49;;;;;;;6.25;3.47;;;;;;;;;;5006675;28;20057;-61
2023/03/19 09:09:21;;;;;;;7.07;3.80;;;;;;;;;;5008038;28;20038;-65
2023/03/19 09:11:48;;;;;;;6.57;3.30;;;;;;;;;;5007619;28;20038;-62
2023/03/19 09:14:15;;;;;;;5.95;2.83;;;;;;;;;;5009419;28;20056;-63
2023/03/19 09:16:42;;;;;;;6.88;2.70;;;;;;;;;;5007236;28;20384;-62
2023/03/19 09:19:09;;;;;;;4.43;2.88;;;;;;;;;;5006763;28;20033;-62
2023/03/19 09:21:35;;;;;;;6.22;2.97;;;;;;;;;;5008627;28;20037;-62
2023/03/19 09:24:02;;;;;;;5.32;3.10;;;;;;;;;;5009412;28;20039;-62
2023/03/19 09:26:29;;;;;;;5.88;3.45;;;;;;;;;;5009339;28;20439;-62
2023/03/19 09:28:56;;;;;;;7.13;3.20;;;;;;;;;;5008131;28;20042;-62
2023/03/19 09:31:22;;;;;;;5.57;3.58;;;;;;;;;;5006786;28;20029;-62
2023/03/19 09:33:49;;;;;;;4.55;3.50;;;;;;;;;;5008128;28;20034;-62
2023/03/19 09:36:15;;;;;;;5.38;3.00;;;;;;;;;;5007250;28;20419;-63
2023/03/19 09:38:41;;;;;;;5.68;3.63;;;;;;;;;;5009201;28;20046;-62
2023/03/19 09:41:45;;;;;;;9.07;3.95;;;;;;;;;;5009292;28;20500;-62
2023/03/19 09:44:29;;;;;;;7.32;3.58;;;;;;;;;;5030047;28;20049;-62
2023/03/19 09:47:27;;;;;;;7.00;3.10;;;;;;;;;;5006768;28;20404;-62
2023/03/19 09:49:57;;;;;;;7.07;3.45;;;;;;;;;;5010890;28;20034;-62
2023/03/19 09:53:00;;;;;;;8.00;3.67;;;;;;;;;;5011565;28;20057;-62
2023/03/19 09:55:26;;;;;;;5.30;3.00;;;;;;;;;;5008755;28;20052;-62
2023/03/19 09:57:55;;;;;;;6.43;3.45;;;;;;;;;;5008254;28;20048;-63
2023/03/19 10:00:26;;;;;;;6.25;3.13;;;;;;;;;;5028235;28;20041;-63
2023/03/19 10:02:52;;;;;;;7.60;3.50;;;;;;;;;;5008967;28;20041;-62
2023/03/19 10:05:44;;;;;;;5.60;3.30;;;;;;;;;;5010469;28;20037;-62
2023/03/19 10:08:42;;;;;;;5.40;3.28;;;;;;;;;;5011513;28;20069;-62
2023/03/19 10:11:12;;;;;;;6.07;3.13;;;;;;;;;;5015318;28;20588;-62
2023/03/19 10:13:52;;;;;;;7.70;3.35;;;;;;;;;;5008917;28;20384;-62
2023/03/19 10:16:23;;;;;;;7.55;3.33;;;;;;;;;;5013261;28;20126;-62
2023/03/19 10:18:53;;;;;;;11.35;3.67;;;;;;;;;;5012817;28;20054;-62
2023/03/19 10:21:41;;;;;;;8.40;4.07;;;;;;;;;;5013698;28;20042;-61
2023/03/19 10:24:32;;;;;;;8.88;3.15;;;;;;;;;;5007313;28;20030;-62
2023/03/19 10:27:01;;;;;;;7.75;3.92;;;;;;;;;;5009232;28;20097;-62
2023/03/19 10:29:28;;;;;;;7.45;3.85;;;;;;;;;;5010963;28;20037;-62
2023/03/19 10:32:26;;;;;;;9.07;3.70;;;;;;;;;;5010936;28;20029;-62
2023/03/19 10:34:53;;;;;;;6.82;3.72;;;;;;;;;;5010271;28;20038;-62
2023/03/19 10:37:25;;;;;;;11.07;3.97;;;;;;;;;;5011064;28;20045;-62
2023/03/19 10:39:55;;;;;;;6.45;3.92;;;;;;;;;;5011835;28;20200;-63
2023/03/19 10:43:00;;;;;;;8.98;3.20;;;;;;;;;;5009110;28;20061;-63
2023/03/19 10:45:28;;;;;;;8.65;4.20;;;;;;;;;;5006939;28;20038;-64
2023/03/19 10:47:59;;;;;;;9.05;3.67;;;;;;;;;;5013631;28;20046;-62
2023/03/19 10:50:34;;;;;;;7.90;3.70;;;;;;;;;;5012203;28;20045;-63
2023/03/19 10:53:13;;;;;;;7.95;3.60;;;;;;;;;;5010374;28;20038;-63
2023/03/19 10:55:49;;;;;;;7.20;3.80;;;;;;;;;;5010779;28;20046;-63
2023/03/19 10:58:19;;;;;;;8.27;3.97;;;;;;;;;;5012124;28;20419;-63
2023/03/19 11:00:46;;;;;;;9.40;4.15;;;;;;;;;;5013865;28;20037;-63
2023/03/19 11:03:30;;;;;;;9.35;4.05;;;;;;;;;;5009573;28;20041;-63
2023/03/19 11:06:17;;;;;;;7.78;4.18;;;;;;;;;;5008602;28;20797;-62
2023/03/19 11:09:10;;;;;;;7.78;4.03;;;;;;;;;;5008901;28;20053;-62
2023/03/19 11:11:42;;;;;;;7.78;3.72;;;;;;;;;;5008382;28;20050;-62
2023/03/19 11:14:31;;;;;;;9.45;4.13;;;;;;;;;;5010307;28;20045;-62
2023/03/19 11:17:13;;;;;;;8.57;3.75;;;;;;;;;;5010248;28;20046;-61
2023/03/19 11:19:41;;;;;;;10.27;4.25;;;;;;;;;;5011625;28;20054;-62
2023/03/19 11:22:21;;;;;;;6.60;3.80;;;;;;;;;;5011311;28;20046;-62
2023/03/19 11:24:56;;;;;;;6.07;3.88;;;;;;;;;;5007469;28;20090;-61
2023/03/19 11:27:33;;;;;;;13.35;5.82;;;;;;;;;;5008887;28;20038;-58
2023/03/19 11:30:06;;;;;;;14.27;5.70;;;;;;;;;;5009937;28;20029;-59
2023/03/19 11:32:32;;;;;;;12.80;5.70;;;;;;;;;;5004832;28;20045;-60
2023/03/19 11:35:05;;;;;;;9.13;4.13;;;;;;;;;;5008032;28;20038;-61
2023/03/19 11:37:46;;;;;;;12.10;4.40;;;;;;;;;;5009017;28;20041;-60
2023/03/19 11:40:36;;;;;;;8.40;4.28;;;;;;;;;;5011431;28;20041;-59
2023/03/19 11:43:20;;;;;;;;;;;;;;;;;;5011098;28;20038;-60
2023/03/19 11:46:08;;;;;;;9.68;4.10;;;;;;;;;;5013682;28;20559;-60
2023/03/19 11:48:56;;;;;;;8.98;4.00;;;;;;;;;;5007839;28;20106;-62
2023/03/19 11:51:40;;;;;;;9.68;4.30;;;;;;;;;;5008533;28;20042;-62
2023/03/19 11:54:43;;;;;;;9.63;4.28;;;;;;;;;;5008027;28;20041;-63
2023/03/19 11:57:10;;;;;;;10.30;4.70;;;;;;;;;;5008760;28;20054;-62
2023/03/19 12:00:20;;;;;;;8.63;4.50;;;;;;;;;;5009468;28;20045;-63
2023/03/19 12:02:58;;;;;;;7.20;4.38;;;;;;;;;;5009052;28;20034;-62
2023/03/19 12:05:32;;;;;;;12.13;4.90;;;;;;;;;;5010722;28;21541;-62
2023/03/19 12:08:17;;;;;;;10.07;4.47;;;;;;;;;;5009887;28;20292;-62
2023/03/19 12:10:57;;;;;;;9.90;4.35;;;;;;;;;;5006562;28;20045;-62
2023/03/19 12:13:53;;;;;;;9.55;4.47;;;;;;;;;;5008264;28;20528;-62
2023/03/19 12:16:43;;;;;;;9.48;4.80;;;;;;;;;;5009894;28;20053;-62
2023/03/19 12:19:44;;;;;;;8.18;4.25;;;;;;;;;;5006321;28;20045;-62
2023/03/19 12:22:14;;;;;;;6.97;4.05;;;;;;;;;;5008105;28;20030;-62
2023/03/19 12:25:05;;;;;;;8.07;3.75;;;;;;;;;;5007431;28;20054;-62
2023/03/19 12:27:40;;;;;;;11.52;4.25;;;;;;;;;;5007702;28;20042;-62
2023/03/19 12:30:24;;;;;;;10.35;4.28;;;;;;;;;;5005972;28;20550;-62
2023/03/19 12:33:08;;;;;;;10.70;4.22;;;;;;;;;;5007626;28;20048;-62
2023/03/19 12:35:38;;;;;;;7.00;4.00;;;;;;;;;;5008300;28;20034;-62
2023/03/19 12:38:25;;;;;;;8.15;4.50;;;;;;;;;;5005590;28;20034;-62
2023/03/19 12:40:55;;;;;;;8.25;4.00;;;;;;;;;;5008700;28;20040;-62
2023/03/19 12:43:33;;;;;;;;;;;;;;;;;;5011136;28;20057;-62
2023/03/19 12:46:03;;;;;;;14.07;3.95;;;;;;;;;;5007084;28;19914;-62
2023/03/19 12:48:38;;;;;;;8.88;4.18;;;;;;;;;;5007744;28;20045;-63
2023/03/19 12:51:08;;;;;;;10.05;4.68;;;;;;;;;;5004844;28;20064;-62
2023/03/19 12:53:44;;;;;;;5.70;3.75;;;;;;;;;;5008999;28;20036;-62
2023/03/19 12:56:20;;;;;;;8.02;3.97;;;;;;;;;;5009787;28;20415;-62
2023/03/19 12:59:07;;;;;;;7.88;3.90;;;;;;;;;;4991140;28;20112;-62
2023/03/19 13:01:43;;;;;;;10.45;4.15;;;;;;;;;;5008574;28;20040;-63
2023/03/19 13:04:21;;;;;;;9.20;4.50;;;;;;;;;;5008525;28;20042;-62
2023/03/19 13:06:55;;;;;;;8.63;5.10;;;;;;;;;;5010887;28;20033;-62
2023/03/19 13:09:37;;;;;;;12.55;5.00;;;;;;;;;;5009665;28;20050;-62
2023/03/19 13:12:20;;;;;;;8.40;4.60;;;;;;;;;;5009484;28;20057;-62
2023/03/19 13:15:29;;;;;;;11.23;5.40;;;;;;;;;;5003900;28;20057;-62
2023/03/19 13:18:18;;;;;;;6.72;4.03;;;;;;;;;;5029110;28;20037;-62
2023/03/19 13:21:15;;;;;;;10.75;5.13;;;;;;;;;;5026566;28;20041;-62
2023/03/19 13:23:44;;;;;;;8.50;4.75;;;;;;;;;;5008789;28;20041;-62
2023/03/19 13:26:12;;;;;;;9.13;4.55;;;;;;;;;;5007956;28;20038;-62
2023/03/19 13:28:57;;;;;;;11.25;4.85;;;;;;;;;;5009711;28;20413;-62
2023/03/19 13:31:25;;;;;;;13.15;4.97;;;;;;;;;;5007187;28;20401;-62
2023/03/19 13:34:03;;;;;;;9.82;4.43;;;;;;;;;;5008536;28;20029;-62
2023/03/19 13:36:34;;;;;;;9.05;4.60;;;;;;;;;;5007756;28;20039;-62
2023/03/19 13:39:01;;;;;;;8.45;4.63;;;;;;;;;;5008035;28;20038;-62
2023/03/19 13:41:38;;;;;;;9.10;4.50;;;;;;;;;;5010598;28;20048;-61
2023/03/19 13:44:31;;;;;;;10.75;5.18;;;;;;;;;;5013684;28;20045;-62
2023/03/19 13:47:27;;;;;;;9.48;4.82;;;;;;;;;;5011111;28;20487;-62
2023/03/19 13:50:20;;;;;;;13.60;5.03;;;;;;;;;;5015544;28;20041;-61
2023/03/19 13:52:50;;;;;;;8.20;4.40;;;;;;;;;;5009423;28;20053;-62
2023/03/19 13:55:45;;;;;;;11.07;4.63;;;;;;;;;;5013807;28;20057;-62
2023/03/19 14:01:05;;;;;;;11.45;5.28;;;;;;;;;;5013189;28;20535;-62
2023/03/19 14:03:34;;;;;;;9.05;4.57;;;;;;;;;;5018342;28;20073;-62
2023/03/19 14:06:00;;;;;;;12.47;5.37;;;;;;;;;;5015378;28;20041;-62
2023/03/19 14:08:47;;;;;;;12.90;5.55;;;;;;;;;;5012013;28;20048;-63
2023/03/19 14:11:27;;;;;;;13.23;5.45;;;;;;;;;;5011318;28;20054;-62
2023/03/19 14:13:55;;;;;;;11.32;5.43;;;;;;;;;;5007552;28;20042;-62
2023/03/19 14:16:28;;;;;;;15.30;6.80;;;;;;;;;;5011375;28;20076;-62
2023/03/19 14:18:56;;;;;;;12.95;6.53;;;;;;;;;;5012101;28;20030;-62
2023/03/19 14:22:01;;;;;;;7.82;5.00;;;;;;;;;;5032983;28;20049;-62
2023/03/19 14:24:34;;;;;;;13.48;6.82;;;;;;;;;;5010495;28;20046;-62
2023/03/19 14:27:11;;;;;;;13.88;7.07;;;;;;;;;;5012592;28;20435;-63
2023/03/19 14:29:41;;;;;;;12.35;5.60;;;;;;;;;;5010229;28;20109;-63
2023/03/19 14:32:15;;;;;;;11.70;5.00;;;;;;;;;;5008241;28;20061;-63
2023/03/19 14:34:42;;;;;;;10.20;5.28;;;;;;;;;;5007831;28;20026;-61
2023/03/19 14:37:24;;;;;;;14.25;5.50;;;;;;;;;;5010740;28;20041;-62
2023/03/19 14:39:56;;;;;;;11.85;5.35;;;;;;;;;;5011836;28;20042;-62
2023/03/19 14:42:41;;;;;;;15.68;5.30;;;;;;;;;;5010405;28;20045;-62
2023/03/19 14:45:29;;;;;;;11.73;5.20;;;;;;;;;;5010767;28;20046;-63
2023/03/19 14:48:05;;;;;;;9.05;5.15;;;;;;;;;;5009327;28;20510;-63
2023/03/19 14:50:39;;;;;;;10.48;5.20;;;;;;;;;;5011375;28;20050;-63
2023/03/19 14:53:17;;;;;;;9.73;4.78;;;;;;;;;;5008971;28;20041;-63
2023/03/19 14:55:49;;;;;;;10.60;4.97;;;;;;;;;;5008994;28;20037;-63
2023/03/19 14:58:17;;;;;;;8.95;5.00;;;;;;;;;;5009152;28;20049;-62
2023/03/19 15:00:50;;;;;;;14.32;6.97;;;;;;;;;;5015456;28;20068;-63
2023/03/19 15:03:36;;;;;;;8.60;3.90;;;;;;;;;;5012359;28;20170;-62
2023/03/19 15:06:05;;;;;;;5.32;3.28;;;;;;;;;;5015369;28;20053;-63
2023/03/19 15:08:35;;;;;;;9.40;3.00;;;;;;;;;;5010929;28;20033;-62
2023/03/19 15:11:13;;;;;;;4.80;2.50;;;;;;;;;;5008816;28;20042;-62
2023/03/19 15:14:10;;;;;;;5.50;2.50;;;;;;;;;;5006841;28;20041;-62
2023/03/19 15:16:39;;;;;;;3.85;2.50;;;;;;;;;;5002669;28;20065;-64